map of RJFY home
RJFY - Airport
Location
City:  Kanoya, Kagoshima, Japan
ICAO:RJFY

Details
Type:Airport (Aerodrome, Airfield)
Use:Military
Latitude:31°22'03"N (31.367608)
Longitude:130°50'44"E (130.845456)
Datum:WGS 1984
Elevation:214 ft (65 m)
Variation:6.87°W (WMM2015 magnetic declination)
-0.08° annual change
Runways:2
Longest:7382 × 148 ft (2250 × 45 m), paved

Time
Time Zone:UTC+9
Local Time:

Weather
METAR:RJFY 220349Z 28015G25KT 9999 FEW030 13/01 Q1017 RMK 1CU030 A3005

Related Locations
Nearby:
Farthest:SNPV: 12345 mi / 19868 km
Mostardas [Solidão], RS, BR

Find:

   beyond  
but within

Other Information
Maps:
NOTAMs:
Links:
Sources:

  
  • flag of Japan
  • flag of Kagoshima
  

Sectional Chart

Flight Planning
at skyvector.com

Satellite Image

Google Maps Satellite view

 

Copyright © 2004-2019 Karl L. Swartz. All rights reserved.
The Great Circle Mapper name and logo are trademarks of the Great Circle Mapper.
All other trademarks mentioned herein belong to their respective owners.
Please see credits for attibutions and further copyright information.

  Follow gcmap on Facebook Follow gcmap on Twitter Follow gcmap on Google+ GCmap on LinkedIn

hCard Microformat

Geo Microformat